KSHD/SHD METAR and TAF weather

Enter ICAO airport designator
Station Type Date Time Source
KSHD METAR 2019/04/20 22:15 UTC NOAA

KSHD 202215Z AUTO 20010G14KT 10SM SCT075 BKN085 13/06 A2973 RMK AO2 T01270055


Station Type Date Time Source
KSHD Decoded METAR 2019/04/20 22:15 UTC NOAA

Staunton / Shenandoah, VA, United States (KSHD) 38-16N 078-54W
Apr 20, 2019 - 06:15 PM EDT / 2019.04.20 2215 UTC
Wind: from the SSW (200 degrees) at 12 MPH (10 KT) gusting to 16 MPH (14 KT):0
Visibility: 10 mile(s):0
Sky conditions: mostly cloudy
Temperature: 54.9 F (12.7 C)
Dew Point: 41.9 F (5.5 C)
Relative Humidity: 61%
Pressure (altimeter): 29.73 in. Hg (1006 hPa)
ob: KSHD 202215Z AUTO 20010G14KT 10SM SCT075 BKN085 13/06 A2973 RMK AO2 T01270055
cycle: 22

Station Type Date Time Source
KSHD TAF UTC NOAA

Error!

Example: see airport list